createdAt,value
2022-09-10T00:00:54.794Z,100023.06
2022-09-10T00:03:57.844Z,100022.53
2022-09-10T00:07:00.573Z,100024.81
2022-09-10T00:10:03.620Z,100007.34
2022-09-10T00:13:09.403Z,100019.56
2022-09-10T00:16:14.380Z,100007.09
2022-09-10T00:19:17.727Z,100008.22
2022-09-10T00:22:20.671Z,100004.81
2022-09-10T00:25:23.366Z,99998.56
2022-09-10T00:28:32.588Z,100002.06
2022-09-10T00:31:36.492Z,100004.00
2022-09-10T00:34:39.568Z,100013.16
2022-09-10T00:37:42.562Z,100000.31
2022-09-10T00:40:46.361Z,100005.75
2022-09-10T00:43:53.934Z,99998.34
2022-09-10T00:46:57.683Z,100000.06
2022-09-10T00:50:05.633Z,100004.16
2022-09-10T00:53:12.822Z,100007.88
2022-09-10T00:56:15.855Z,100007.53
2022-09-10T00:59:22.362Z,100015.41
2022-09-10T01:02:26.119Z,100009.72
2022-09-10T01:05:31.749Z,100005.81
2022-09-10T01:08:34.527Z,100001.09
2022-09-10T01:11:50.312Z,99999.94
2022-09-10T01:15:09.347Z,99996.41
2022-09-10T01:18:30.344Z,99992.72
2022-09-10T01:21:38.722Z,99998.84
2022-09-10T01:24:54.314Z,99997.09
2022-09-10T01:28:01.980Z,100001.44
2022-09-10T01:31:12.069Z,99988.66
2022-09-10T01:34:21.423Z,100003.19
2022-09-10T01:37:29.260Z,100002.22
2022-09-10T01:40:33.611Z,99994.69
2022-09-10T01:43:38.036Z,99987.50
2022-09-10T01:46:50.685Z,99991.41
2022-09-10T01:50:15.330Z,99988.34
2022-09-10T01:53:39.604Z,99989.78
2022-09-10T01:56:50.728Z,99988.03
2022-09-10T02:00:04.369Z,99994.47
2022-09-10T02:03:11.368Z,99977.97
2022-09-10T02:06:17.361Z,99999.25
2022-09-10T02:09:21.215Z,100002.22
2022-09-10T02:12:24.870Z,99994.78
2022-09-10T02:15:32.545Z,99990.97
2022-09-10T02:18:36.182Z,100003.28
2022-09-10T02:21:39.148Z,99973.06
2022-09-10T02:24:44.881Z,99985.53
2022-09-10T02:27:49.030Z,100002.44
2022-09-10T02:30:55.052Z,99989.97
2022-09-10T02:33:57.780Z,99985.41
2022-09-10T02:37:02.779Z,99983.53
2022-09-10T02:40:06.626Z,99990.44
2022-09-10T02:43:09.410Z,99987.47
2022-09-10T02:46:13.825Z,99996.22
2022-09-10T02:49:16.563Z,99982.34
2022-09-10T02:52:19.295Z,99999.28
2022-09-10T02:55:22.005Z,99985.75
2022-09-10T02:58:25.307Z,99989.25
2022-09-10T03:01:30.115Z,99988.13
2022-09-10T03:04:32.956Z,99985.28
2022-09-10T03:07:35.692Z,99983.78
2022-09-10T03:10:39.855Z,99988.38
2022-09-10T03:13:43.443Z,99987.50
2022-09-10T03:16:48.276Z,99988.38
2022-09-10T03:19:51.391Z,99975.91
2022-09-10T03:22:54.161Z,99973.84
2022-09-10T03:25:57.263Z,99978.19
2022-09-10T03:29:00.365Z,99972.72
2022-09-10T03:32:05.229Z,99986.16
2022-09-10T03:35:10.099Z,99984.22
2022-09-10T03:38:13.764Z,99982.25
2022-09-10T03:41:16.973Z,99983.09
2022-09-10T03:44:19.774Z,99981.69
2022-09-10T03:47:24.041Z,99985.41
2022-09-10T03:50:27.200Z,99975.91
2022-09-10T03:53:29.901Z,99976.78
2022-09-10T03:56:33.231Z,99978.63
2022-09-10T03:59:37.038Z,99982.34
2022-09-10T04:02:42.218Z,99984.09
2022-09-10T04:05:45.019Z,99982.22
2022-09-10T04:08:50.522Z,99983.13
2022-09-10T04:11:53.216Z,99973.94
2022-09-10T04:14:55.993Z,99980.28
2022-09-10T04:18:03.099Z,99979.41
2022-09-10T04:21:06.299Z,99986.63
2022-09-10T04:24:12.145Z,99984.66
2022-09-10T04:27:16.723Z,99980.91
2022-09-10T04:30:20.011Z,99985.41
2022-09-10T04:33:25.094Z,99980.81
2022-09-10T04:36:28.323Z,99989.66
2022-09-10T04:39:31.015Z,99981.38
2022-09-10T04:42:33.832Z,99986.84
2022-09-10T04:45:36.596Z,99988.56
2022-09-10T04:48:40.879Z,99994.88
2022-09-10T04:51:43.571Z,100000.34
2022-09-10T04:54:46.727Z,99997.41
2022-09-10T04:57:49.543Z,99998.19
2022-09-10T05:00:52.484Z,100000.03
2022-09-10T05:03:56.814Z,99993.59
2022-09-10T05:06:59.692Z,99985.72
2022-09-10T05:10:02.426Z,99978.75
2022-09-10T05:13:05.225Z,99997.31
2022-09-10T05:16:08.739Z,99977.22
2022-09-10T05:19:18.078Z,99984.53
2022-09-10T05:22:21.753Z,99985.41
2022-09-10T05:25:25.449Z,99987.16
2022-09-10T05:28:28.662Z,99992.72
2022-09-10T05:31:31.990Z,99992.47
2022-09-10T05:34:36.155Z,99994.22
2022-09-10T05:37:39.278Z,99990.75
2022-09-10T05:40:44.671Z,99991.38
2022-09-10T05:43:47.481Z,100000.34
2022-09-10T05:46:50.248Z,100000.16
2022-09-10T05:49:55.293Z,99982.09
2022-09-10T05:52:58.050Z,99989.13
2022-09-10T05:56:00.958Z,99989.88
2022-09-10T05:59:04.419Z,99989.13
2022-09-10T06:02:08.181Z,99997.97
2022-09-10T06:05:12.770Z,99998.59
2022-09-10T06:08:16.397Z,99995.56
2022-09-10T06:11:19.101Z,99999.06
2022-09-10T06:14:22.575Z,100002.53
2022-09-10T06:17:25.368Z,99999.94
2022-09-10T06:20:30.272Z,100006.13
2022-09-10T06:23:33.523Z,100006.03
2022-09-10T06:26:37.070Z,100007.00
2022-09-10T06:29:40.072Z,100009.75
2022-09-10T06:32:43.185Z,100006.03
2022-09-10T06:35:53.828Z,99998.50
2022-09-10T06:38:57.697Z,100000.97
2022-09-10T06:42:01.043Z,99982.97
2022-09-10T06:45:03.960Z,99998.13
2022-09-10T06:51:31.637Z,99999.59
2022-09-10T06:54:34.378Z,100002.34
2022-09-10T06:57:38.295Z,100003.81
2022-09-10T07:00:41.845Z,100007.84
2022-09-10T07:03:45.122Z,100005.63
2022-09-10T07:06:49.338Z,100010.88
2022-09-10T07:09:52.059Z,100008.16
2022-09-10T07:12:55.062Z,100006.03
2022-09-10T07:15:57.970Z,100015.84
2022-09-10T07:19:02.240Z,100001.13
2022-09-10T07:22:06.474Z,100021.28
2022-09-10T07:25:09.997Z,100023.72
2022-09-10T07:28:15.276Z,100020.94
2022-09-10T07:31:20.861Z,100031.44
2022-09-10T07:34:23.856Z,100042.19
2022-09-10T07:37:28.324Z,100042.78
2022-09-10T07:40:31.075Z,100042.91
2022-09-10T07:43:33.923Z,100042.25
2022-09-10T07:47:05.434Z,100038.88
2022-09-10T07:50:12.096Z,100046.09
2022-09-10T07:53:16.264Z,100050.44
2022-09-10T07:56:19.545Z,100062.38
2022-09-10T07:59:22.317Z,100055.63
2022-09-10T08:02:25.991Z,100053.25
2022-09-10T08:05:29.116Z,100073.47
2022-09-10T08:08:38.252Z,100066.53
2022-09-10T08:11:41.567Z,100062.38
2022-09-10T08:14:44.310Z,100078.91
2022-09-10T08:17:47.086Z,100075.72
2022-09-10T08:20:55.097Z,100077.00
2022-09-10T08:23:59.749Z,100082.03
2022-09-10T08:27:02.613Z,100085.28
2022-09-10T08:30:06.303Z,100091.28
2022-09-10T08:33:10.673Z,100081.47
2022-09-10T08:36:14.651Z,100085.59
2022-09-10T08:39:19.106Z,100087.66
2022-09-10T08:42:27.498Z,100092.19
2022-09-10T08:45:34.039Z,100081.84
2022-09-10T08:48:40.866Z,100084.44
2022-09-10T08:51:50.073Z,100073.78
2022-09-10T08:55:03.199Z,100081.88
2022-09-10T08:58:14.260Z,100073.13
2022-09-10T09:01:30.398Z,100077.47
2022-09-10T09:04:41.676Z,100072.06
2022-09-10T09:07:44.874Z,100062.69
2022-09-10T09:10:51.683Z,100086.78
2022-09-10T09:14:16.572Z,100067.78
2022-09-10T09:17:43.771Z,100079.06
2022-09-10T09:20:49.820Z,100076.34
2022-09-10T09:24:13.265Z,100068.97
2022-09-10T09:27:20.163Z,100066.31
2022-09-10T09:30:25.801Z,100068.72
2022-09-10T09:33:31.011Z,100058.44
2022-09-10T09:36:41.123Z,100067.59
2022-09-10T09:39:54.052Z,100068.91
2022-09-10T09:43:02.240Z,100074.69
2022-09-10T09:46:10.593Z,100065.41
2022-09-10T09:49:16.154Z,100067.22
2022-09-10T09:52:22.468Z,100067.59
2022-09-10T09:55:32.933Z,100077.75
2022-09-10T09:58:39.993Z,100064.75
2022-09-10T10:01:43.364Z,100046.78
2022-09-10T10:04:56.202Z,100063.88
2022-09-10T10:07:59.096Z,100059.34
2022-09-10T10:11:02.415Z,100061.69
2022-09-10T10:14:22.939Z,100050.56
2022-09-10T10:17:32.542Z,100043.94
2022-09-10T10:20:41.534Z,100042.22
2022-09-10T10:23:44.581Z,100044.81
2022-09-10T10:26:49.281Z,100036.28
2022-09-10T10:29:56.476Z,100035.22
2022-09-10T10:33:02.890Z,100024.53
2022-09-10T10:36:16.309Z,100027.41
2022-09-10T10:39:28.632Z,100022.19
2022-09-10T10:42:37.855Z,100017.38
2022-09-10T10:45:56.085Z,100010.22
2022-09-10T10:49:09.877Z,100008.78
2022-09-10T10:52:21.594Z,100012.06
2022-09-10T10:55:29.224Z,99997.44
2022-09-10T10:58:53.950Z,100007.97
2022-09-10T11:02:03.701Z,100007.69
2022-09-10T11:05:20.402Z,100019.84
2022-09-10T11:08:30.403Z,100006.44
2022-09-10T11:11:40.152Z,100014.19
2022-09-10T11:14:48.751Z,100008.38
2022-09-10T11:17:58.419Z,100017.41
2022-09-10T11:21:08.919Z,100005.16
2022-09-10T11:24:17.246Z,100004.19
2022-09-10T11:27:24.583Z,100007.09
2022-09-10T11:30:27.271Z,100007.69
2022-09-10T11:33:39.451Z,99999.56
2022-09-10T11:36:48.018Z,99989.25
2022-09-10T11:39:54.011Z,99990.50
2022-09-10T11:43:02.324Z,99982.59
2022-09-10T11:46:12.770Z,99983.72
2022-09-10T11:49:22.536Z,99978.69
2022-09-10T11:52:26.844Z,99981.47
2022-09-10T11:55:44.187Z,99990.16
2022-09-10T11:58:57.918Z,99999.31
2022-09-10T12:02:19.500Z,100012.81
2022-09-10T12:05:32.664Z,100032.34
2022-09-10T12:08:48.510Z,100044.19
2022-09-10T12:12:00.564Z,100038.22
2022-09-10T12:15:09.455Z,100028.59
2022-09-10T12:18:19.736Z,100029.22
2022-09-10T12:21:32.437Z,100040.56
2022-09-10T12:24:37.518Z,100035.97
2022-09-10T12:27:49.099Z,100034.88
2022-09-10T12:30:52.836Z,100037.31
2022-09-10T12:34:18.002Z,100032.69
2022-09-10T12:37:28.210Z,100030.97
2022-09-10T12:40:45.357Z,100027.50
2022-09-10T12:43:56.811Z,100026.22
2022-09-10T12:47:28.898Z,100023.94
2022-09-10T12:50:37.298Z,100019.00
2022-09-10T12:54:02.580Z,100021.03
2022-09-10T12:57:22.136Z,100008.72
2022-09-10T13:00:28.045Z,100012.75
2022-09-10T13:03:32.034Z,100008.88
2022-09-10T13:06:38.583Z,100005.97
2022-09-10T13:09:43.196Z,99998.69
2022-09-10T13:12:46.823Z,99986.19
2022-09-10T13:15:53.453Z,99996.22
2022-09-10T13:19:34.654Z,99985.84
2022-09-10T13:22:57.572Z,99984.78
2022-09-10T13:26:48.691Z,99991.16
2022-09-10T13:29:55.573Z,99994.03
2022-09-10T13:33:01.892Z,99997.38
2022-09-10T13:36:16.858Z,99995.09
2022-09-10T13:40:03.737Z,99993.19
2022-09-10T13:43:24.954Z,99995.91
2022-09-10T13:46:35.223Z,100000.97
2022-09-10T13:49:47.408Z,99990.00
2022-09-10T13:52:55.283Z,99976.06
2022-09-10T13:56:02.747Z,99971.41
2022-09-10T13:59:07.716Z,99963.56
2022-09-10T14:02:10.979Z,99960.69
2022-09-10T14:05:30.671Z,99952.00
2022-09-10T14:08:38.506Z,99945.59
2022-09-10T14:11:44.062Z,99934.16
2022-09-10T14:14:51.421Z,99941.97
2022-09-10T14:17:58.425Z,99931.56
2022-09-10T14:21:01.548Z,99933.31
2022-09-10T14:24:04.335Z,99940.13
2022-09-10T14:27:18.549Z,99933.63
2022-09-10T14:30:26.590Z,99943.50
2022-09-10T14:33:33.132Z,99931.56
2022-09-10T14:36:36.032Z,99945.06
2022-09-10T14:39:45.220Z,99937.22
2022-09-10T14:42:50.741Z,99925.78
2022-09-10T14:45:53.614Z,99933.38
2022-09-10T14:49:09.542Z,99930.84
2022-09-10T14:52:12.869Z,99932.16
2022-09-10T14:55:16.851Z,99924.72
2022-09-10T14:58:21.086Z,99931.97
2022-09-10T15:01:24.570Z,99922.25
2022-09-10T15:04:30.200Z,99917.44
2022-09-10T15:07:33.293Z,99919.44
2022-09-10T15:10:36.168Z,99916.94
2022-09-10T15:13:43.586Z,99922.88
2022-09-10T15:16:46.603Z,99922.00
2022-09-10T15:19:49.922Z,99927.66
2022-09-10T15:22:52.550Z,99924.19
2022-09-10T15:25:58.241Z,99924.94
2022-09-10T15:29:02.598Z,99929.47
2022-09-10T15:32:05.806Z,99934.56
2022-09-10T15:35:09.583Z,99935.72
2022-09-10T15:38:13.669Z,99931.84
2022-09-10T15:41:16.999Z,99931.69
2022-09-10T15:44:23.459Z,99928.22
2022-09-10T15:47:27.150Z,99921.22
2022-09-10T15:50:29.893Z,99922.09
2022-09-10T15:53:34.060Z,99926.44
2022-09-10T15:56:36.789Z,99921.53
2022-09-10T15:59:40.823Z,99931.94
2022-09-10T16:02:47.266Z,99923.56
2022-09-10T16:05:50.354Z,99929.97
2022-09-10T16:08:56.609Z,99931.88
2022-09-10T16:11:59.444Z,99939.13
2022-09-10T16:15:03.738Z,99946.09
2022-09-10T16:18:06.532Z,99944.75
2022-09-10T16:21:11.746Z,99957.81
2022-09-10T16:24:14.440Z,99953.16
2022-09-10T16:27:17.663Z,99959.84
2022-09-10T16:30:22.694Z,99958.78
2022-09-10T16:33:25.536Z,99971.78
2022-09-10T16:36:28.372Z,99970.16
2022-09-10T16:39:31.075Z,99976.22
2022-09-10T16:42:34.193Z,99983.28
2022-09-10T16:45:38.251Z,99986.44
2022-09-10T16:48:42.862Z,99998.44
2022-09-10T16:51:47.220Z,99998.25
2022-09-10T16:54:50.097Z,100004.97
2022-09-10T16:57:52.910Z,100000.88
2022-09-10T17:00:58.764Z,99993.19
2022-09-10T17:04:03.276Z,99993.97
2022-09-10T17:07:06.904Z,99991.59
2022-09-10T17:10:10.615Z,99988.53
2022-09-10T17:13:14.038Z,99983.59
2022-09-10T17:16:25.191Z,100003.94
2022-09-10T17:19:29.321Z,99996.00
2022-09-10T17:22:32.485Z,99992.63
2022-09-10T17:25:36.179Z,99985.69
2022-09-10T17:28:40.456Z,99994.16
2022-09-10T17:31:46.531Z,100020.44
2022-09-10T17:34:51.499Z,100021.13
2022-09-10T17:37:54.189Z,100040.34
2022-09-10T17:41:00.155Z,100048.66
2022-09-10T17:44:03.465Z,100045.06
2022-09-10T17:47:09.624Z,100035.84
2022-09-10T17:50:12.448Z,100033.09
2022-09-10T17:53:15.665Z,100040.97
2022-09-10T17:56:20.275Z,100034.84
2022-09-10T17:59:25.141Z,100043.59
2022-09-10T18:02:31.278Z,100048.19
2022-09-10T18:05:39.685Z,100046.94
2022-09-10T18:08:44.269Z,100052.94
2022-09-10T18:11:47.513Z,100044.56
2022-09-10T18:14:50.758Z,100055.78
2022-09-10T18:17:55.974Z,100059.78
2022-09-10T18:21:00.396Z,100062.53
2022-09-10T18:24:05.270Z,100066.28
2022-09-10T18:27:08.412Z,100072.63
2022-09-10T18:30:12.092Z,100073.50
2022-09-10T18:33:16.336Z,100081.34
2022-09-10T18:36:20.425Z,100078.25
2022-09-10T18:39:24.872Z,100088.44
2022-09-10T18:42:27.782Z,100077.47
2022-09-10T18:45:30.480Z,100076.59
2022-09-10T18:48:35.110Z,100083.47
2022-09-10T18:51:38.160Z,100091.28
2022-09-10T18:54:45.894Z,100087.94
2022-09-10T18:57:49.274Z,100095.38
2022-09-10T19:00:55.445Z,100097.13
2022-09-10T19:04:03.633Z,100096.50
2022-09-10T19:07:06.796Z,100081.91
2022-09-10T19:10:09.743Z,100091.25
2022-09-10T19:13:12.497Z,100085.00
2022-09-10T19:16:15.443Z,100086.09
2022-09-10T19:19:22.248Z,100095.47
2022-09-10T19:22:24.966Z,100087.38
2022-09-10T19:25:27.991Z,100093.59
2022-09-10T19:28:33.502Z,100096.06
2022-09-10T19:31:36.540Z,100092.19
2022-09-10T19:34:40.845Z,100093.44
2022-09-10T19:37:43.587Z,100091.16
2022-09-10T19:40:47.011Z,100093.19
2022-09-10T19:43:51.283Z,100086.19
2022-09-10T19:46:53.996Z,100085.19
2022-09-10T19:49:59.093Z,100081.56
2022-09-10T19:53:01.844Z,100078.94
2022-09-10T19:56:06.288Z,100093.00
2022-09-10T19:59:09.893Z,100090.63
2022-09-10T20:02:12.736Z,100088.03
2022-09-10T20:05:17.553Z,100099.09
2022-09-10T20:08:20.292Z,100091.75
2022-09-10T20:11:24.901Z,100091.75
2022-09-10T20:14:28.238Z,100110.91
2022-09-10T20:17:31.204Z,100101.81
2022-09-10T20:20:35.351Z,100105.56
2022-09-10T20:23:38.228Z,100103.31
2022-09-10T20:26:41.783Z,100101.19
2022-09-10T20:29:46.280Z,100108.66
2022-09-10T20:32:49.032Z,100111.25
2022-09-10T20:35:53.067Z,100113.13
2022-09-10T20:38:57.728Z,100121.09
2022-09-10T20:42:00.584Z,100113.00
2022-09-10T20:45:03.499Z,100109.50
2022-09-10T20:48:06.241Z,100113.38
2022-09-10T20:51:10.788Z,100113.59
2022-09-10T20:54:15.266Z,100112.59
2022-09-10T20:57:17.993Z,100113.88
2022-09-10T21:00:20.779Z,100123.34
2022-09-10T21:03:23.491Z,100128.63
2022-09-10T21:06:30.208Z,100126.22
2022-09-10T21:09:32.938Z,100133.94
2022-09-10T21:12:35.625Z,100124.97
2022-09-10T21:15:38.610Z,100122.97
2022-09-10T21:18:42.668Z,100115.28
2022-09-10T21:21:49.082Z,100112.81
2022-09-10T21:24:51.784Z,100125.91
2022-09-10T21:27:54.797Z,100124.66
2022-09-10T21:31:03.256Z,100104.34
2022-09-10T21:34:06.416Z,100115.06
2022-09-10T21:37:10.930Z,100125.53
2022-09-10T21:40:13.716Z,100121.91
2022-09-10T21:43:16.540Z,100127.28
2022-09-10T21:46:19.695Z,100113.31
2022-09-10T21:49:22.428Z,100120.81
2022-09-10T21:52:26.501Z,100112.59
2022-09-10T21:55:29.166Z,100117.69
2022-09-10T21:58:34.246Z,100116.81
2022-09-10T22:01:37.302Z,100113.84
2022-09-10T22:04:40.027Z,100113.72
2022-09-10T22:07:44.163Z,100117.22
2022-09-10T22:10:47.472Z,100110.75
2022-09-10T22:13:52.886Z,100110.63
2022-09-10T22:16:56.104Z,100113.25
2022-09-10T22:19:58.791Z,100112.50
2022-09-10T22:23:03.537Z,100119.84
2022-09-10T22:26:08.722Z,100110.63
2022-09-10T22:29:12.874Z,100119.84
2022-09-10T22:32:15.984Z,100109.88
2022-09-10T22:35:18.976Z,100114.47
2022-09-10T22:38:23.011Z,100115.47
2022-09-10T22:41:27.406Z,100118.69
2022-09-10T22:44:30.109Z,100118.78
2022-09-10T22:47:33.127Z,100117.16
2022-09-10T22:50:35.904Z,100123.50
2022-09-10T22:53:41.794Z,100131.72
2022-09-10T22:56:45.120Z,100134.91
2022-09-10T22:59:47.844Z,100134.41
2022-09-10T23:02:50.573Z,100128.28
2022-09-10T23:06:03.477Z,100136.50
2022-09-10T23:09:09.672Z,100136.38
2022-09-10T23:12:12.346Z,100129.16
2022-09-10T23:15:15.791Z,100134.41
2022-09-10T23:18:18.867Z,100132.66
2022-09-10T23:21:23.921Z,100131.66
2022-09-10T23:24:28.521Z,100123.47
2022-09-10T23:27:31.278Z,100136.16
2022-09-10T23:30:36.209Z,100132.53
2022-09-10T23:33:38.925Z,100134.16
2022-09-10T23:36:45.019Z,100134.88
2022-09-10T23:39:49.413Z,100142.53
2022-09-10T23:42:52.110Z,100132.69
2022-09-10T23:45:55.439Z,100131.63
2022-09-10T23:48:58.460Z,100140.59
2022-09-10T23:52:01.472Z,100137.66
2022-09-10T23:55:06.411Z,100152.63
2022-09-10T23:58:09.081Z,100146.59
